Latest Weather Observations for Whyalla

IDS60801

Issued at 6:02 pm CDT Wednesday 1 April 2015 (issued every 30 minutes, with the page automatically refreshed every 10 minutes)

About weather observations | Map of weather stations | Latest weather observations for SA | Other Formats
Station Details ID: 018120 Name: WHYALLA AERO Lat: -33.05 Lon: 137.52 Height: 6.5 m
Data from the previous 72 hours. | See also: Recent months at Whyalla
Date/Time
CDT
Temp
°C
App
Temp
°C
Dew
Point
Rel
Hum
%
Delta-T
°C
Wind Press
QNH
hPa
Press
MSL
hPa
Rain
since 9 am
mm
Dir
 
Spd
km/h
Gust
km/h
Spd
kts
Gust
kts
01/06:00pm 23.4 19.6 16.7 66 4.1 SSW 32 43 17 23 1014.3 1014.3 0.0
01/05:30pm 25.1 22.9 16.0 57 5.5 S 22 32 12 17 1013.8 1013.8 0.0
01/05:00pm 26.9 22.9 12.9 42 8.2 S 26 39 14 21 1013.2 1013.2 0.0
01/04:30pm 30.9 26.0 8.6 25 12.4 W 24 43 13 23 1013.2 1013.2 0.0
01/04:00pm 32.5 26.2 3.5 16 14.9 NW 26 39 14 21 1012.8 1012.8 0.0
01/03:30pm 32.4 26.8 3.4 16 14.9 NW 22 32 12 17 1013.1 1013.1 0.0
01/03:00pm 32.1 25.8 4.0 17 14.5 WNW 26 35 14 19 1013.6 1013.6 0.0
01/02:30pm 32.0 24.6 3.9 17 14.5 WNW 32 39 17 21 1014.1 1014.1 0.0
01/02:00pm 31.6 25.4 4.4 18 14.1 NW 26 35 14 19 1014.4 1014.4 0.0
01/01:30pm 31.3 25.1 4.2 18 14.0 NW 26 35 14 19 1014.6 1014.6 0.0
01/01:00pm 30.7 24.5 4.4 19 13.6 NW 26 35 14 19 1015.1 1015.1 0.0
01/12:30pm 30.7 24.0 3.7 18 13.8 NW 28 37 15 20 1015.4 1015.4 0.0
01/12:00pm 30.3 22.9 4.1 19 13.4 NW 32 41 17 22 1015.6 1015.6 0.0
01/11:30am 30.6 24.0 4.4 19 13.5 NNW 28 35 15 19 1015.9 1015.9 0.0
01/11:00am 29.3 22.4 4.7 21 12.7 NNW 30 41 16 22 1016.0 1016.0 0.0
01/10:30am 28.0 21.0 4.3 22 12.0 NNW 30 37 16 20 1016.1 1016.1 0.0
01/10:00am 28.1 22.2 3.7 21 12.3 NNW 24 32 13 17 1015.9 1015.8 0.0
01/09:30am 26.5 21.3 3.7 23 11.3 NNW 20 30 11 16 1016.0 1015.9 0.0
01/09:00am 24.0 19.9 4.4 28 9.7 NNW 15 20 8 11 1016.1 1016.0 0.0
01/08:30am 22.5 18.7 4.1 30 9.0 NW 13 17 7 9 1016.0 1015.9 0.0
01/08:00am 24.3 19.3 3.6 26 10.1 N 19 24 10 13 1015.4 1015.3 0.0
01/07:50am 23.3 18.4 4.3 29 9.4 NNE 19 26 10 14 1015.1 1015.0 0.0
01/07:30am 18.2 15.4 5.1 42 6.3 NNW 9 11 5 6 1015.8 1015.7 0.0
01/07:00am 16.7 13.8 4.7 45 5.7 NNW 9 11 5 6 1015.9 1015.8 0.0
01/06:30am 16.3 13.0 4.4 45 5.6 NW 11 13 6 7 1015.8 1015.7 0.0
01/06:00am 15.8 12.1 4.2 46 5.4 WNW 13 15 7 8 1015.8 1015.7 0.0
01/05:30am 16.7 13.9 5.0 46 5.6 NNW 9 11 5 6 1015.6 1015.5 0.0
01/05:00am 16.3 12.7 5.0 47 5.4 NW 13 17 7 9 1015.6 1015.5 0.0
01/04:30am 15.7 12.5 5.3 50 4.9 NNW 11 13 6 7 1015.8 1015.7 0.0
01/04:00am 15.9 12.4 5.5 50 5.0 NW 13 15 7 8 1016.0 1015.9 0.0
01/03:30am 15.7 12.4 6.2 53 4.6 NW 13 17 7 9 1016.2 1016.1 0.0
01/03:00am 15.3 12.4 6.6 56 4.2 NW 11 13 6 7 1016.5 1016.4 0.0
01/02:30am 15.7 12.9 7.0 56 4.3 NW 11 13 6 7 1017.0 1016.9 0.0
01/02:00am 15.9 11.6 6.9 55 4.4 NW 19 22 10 12 1017.3 1017.2 0.0
01/01:30am 16.1 13.5 7.6 57 4.2 NNW 11 15 6 8 1017.5 1017.4 0.0
01/01:00am 16.0 13.4 7.7 58 4.2 NNW 11 13 6 7 1017.9 1017.8 0.0
01/12:30am 16.0 13.9 8.2 60 3.9 NW 9 11 5 6 1018.1 1018.0 0.0
01/12:00am 17.2 15.7 9.1 59 4.2 WNW 7 9 4 5 1018.3 1018.2 0.0
 
Date/Time
CDT
Temp
°C
App
Temp
°C
Dew
Point
Rel
Hum
%
Delta-T
°C
Wind Press
QNH
hPa
Press
MSL
hPa
Rain
since 9 am
mm
Dir
 
Spd
km/h
Gust
km/h
Spd
kts
Gust
kts
31/11:30pm 17.3 15.7 10.2 63 3.8 W 9 9 5 5 1018.4 1018.3 0.0
31/11:00pm 17.0 15.4 10.1 64 3.6 WNW 9 11 5 6 1018.4 1018.3 0.0
31/10:30pm 18.7 19.2 11.5 63 3.9 CALM 0 0 0 0 1018.4 1018.3 0.0
31/10:00pm 20.0 19.1 11.5 58 4.7 ESE 7 9 4 5 1018.2 1018.1 0.0
31/09:30pm 21.7 20.9 12.8 57 5.1 ENE 9 11 5 6 1018.1 1018.0 0.0
31/09:00pm 22.2 21.1 14.3 61 4.6 ENE 13 13 7 7 1018.1 1018.0 0.0
31/08:30pm 22.2 21.3 13.8 59 4.9 E 11 13 6 7 1018.0 1017.9 0.0
31/08:00pm 22.6 22.3 14.4 60 4.8 E 9 13 5 7 1017.8 1017.7 0.0
31/07:30pm 24.8 22.8 10.3 40 8.0 ESE 11 13 6 7 1017.7 1017.6 0.0
31/07:00pm 26.9 24.4 8.4 31 10.0 ESE 11 15 6 8 1017.7 1017.6 0.0
31/06:30pm 27.2 24.5 9.1 32 9.9 SE 13 17 7 9 1017.5 1017.4 0.0
31/06:00pm 29.8 26.9 8.2 26 11.8 SE 13 19 7 10 1017.7 1017.6 0.0
31/05:30pm 29.7 26.8 8.2 26 11.8 SE 13 17 7 9 1017.9 1017.8 0.0
31/05:00pm 29.2 25.8 7.7 26 11.7 SE 15 20 8 11 1017.9 1017.8 0.0
31/04:30pm 30.1 27.1 7.9 25 12.1 SE 13 20 7 11 1018.1 1018.0 0.0
31/04:00pm 30.0 26.9 7.2 24 12.3 ESE 13 19 7 10 1018.5 1018.4 0.0
31/03:30pm 29.7 25.9 7.6 25 12.0 E 17 24 9 13 1018.6 1018.5 0.0
31/03:00pm 29.5 25.4 8.0 26 11.7 ESE 19 24 10 13 1018.8 1018.7 0.0
31/02:30pm 29.3 25.2 7.8 26 11.7 E 19 24 10 13 1019.3 1019.2 0.0
31/02:00pm 29.2 25.4 9.8 30 10.9 E 20 24 11 13 1019.7 1019.6 0.0
31/01:30pm 28.5 25.5 10.7 33 10.1 ESE 17 22 9 12 1020.4 1020.3 0.0
31/01:00pm 28.5 25.2 9.7 31 10.5 E 17 20 9 11 1021.0 1020.9 0.0
31/12:30pm 27.4 25.4 11.4 37 9.1 ESE 13 17 7 9 1021.7 1021.6 0.0
31/12:00pm 26.7 25.5 12.7 42 8.1 ESE 11 15 6 8 1022.0 1021.9 0.0
31/11:30am 27.2 26.6 11.7 38 8.9 ENE 6 15 3 8 1022.5 1022.4 0.0
31/11:00am 26.9 25.1 9.3 33 9.7 NNE 9 15 5 8 1022.7 1022.6 0.0
31/10:30am 25.0 23.9 11.9 44 7.4 NE 9 15 5 8 1022.8 1022.7 0.0
31/10:00am 22.5 23.3 12.4 52 5.7 CALM 0 0 0 0 1022.9 1022.8 0.0
31/09:30am 20.4 21.3 12.9 62 4.2 CALM 0 0 0 0 1023.0 1022.9 0.0
31/09:00am 18.2 17.7 12.2 68 3.3 NNW 6 7 3 4 1022.9 1022.8 -
31/08:30am 15.3 14.4 11.5 78 2.0 NNW 7 9 4 5 1022.8 1022.7 -
31/08:00am 12.9 11.7 10.4 85 1.3 NNW 7 9 4 5 1022.9 1022.8 -
31/07:30am 12.1 10.7 9.7 85 1.2 NNW 7 9 4 5 1022.8 1022.7 -
31/07:00am 12.2 10.5 9.8 85 1.2 NNW 9 11 5 6 1022.7 1022.6 -
31/06:30am 12.6 11.0 10.1 85 1.3 NNW 9 11 5 6 1022.5 1022.4 -
31/06:00am 12.7 11.1 10.2 85 1.3 NW 9 11 5 6 1022.3 1022.2 -
31/05:30am 12.8 11.6 10.2 84 1.3 NW 7 9 4 5 1022.2 1022.1 -
31/05:00am 12.9 11.3 10.3 84 1.3 WNW 9 9 5 5 1022.0 1021.9 -
31/04:30am 13.2 11.7 10.6 84 1.3 NW 9 11 5 6 1021.9 1021.8 -
31/04:00am 14.4 13.6 11.7 84 1.4 WSW 7 9 4 5 1022.2 1022.1 -
31/03:30am 13.8 12.1 11.3 85 1.3 W 11 13 6 7 1022.4 1022.3 -
31/03:00am 13.7 12.8 10.7 82 1.6 W 6 7 3 4 1022.3 1022.2 -
31/02:30am 13.7 12.8 10.7 82 1.6 W 6 9 3 5 1022.6 1022.5 -
31/02:00am 15.8 15.8 12.4 80 1.9 SW 4 7 2 4 1022.6 1022.5 -
31/01:30am 15.7 15.1 12.3 80 1.9 SW 7 9 4 5 1022.8 1022.7 -
31/01:00am 15.8 - 12.5 81 1.8 - - - - - 1023.0 1022.9 -
31/12:00am 16.4 16.3 13.3 82 1.7 SW 6 6 3 3 1023.1 1023.0 0.0
 
Date/Time
CDT
Temp
°C
App
Temp
°C
Dew
Point
Rel
Hum
%
Delta-T
°C
Wind Press
QNH
hPa
Press
MSL
hPa
Rain
since 9 am
mm
Dir
 
Spd
km/h
Gust
km/h
Spd
kts
Gust
kts
30/11:30pm 17.0 16.9 13.9 82 1.8 SSW 7 11 4 6 1023.3 1023.2 0.0
30/11:00pm 17.2 17.2 14.1 82 1.8 WSW 7 9 4 5 1023.6 1023.5 0.0
30/10:30pm 18.6 19.2 15.8 84 1.6 SW 7 9 4 5 1023.4 1023.3 0.0
30/10:00pm 19.1 19.4 16.1 83 1.8 SSW 9 9 5 5 1023.3 1023.2 0.0
30/09:30pm 19.9 20.5 16.7 82 1.9 S 9 11 5 6 1023.2 1023.1 0.0
30/09:00pm 20.4 20.5 16.6 79 2.3 S 11 15 6 8 1023.1 1023.0 0.0
30/08:30pm 20.8 19.7 15.4 71 3.2 SSW 15 17 8 9 1022.8 1022.7 0.0
30/08:00pm 21.5 20.1 14.4 64 4.2 SSW 15 20 8 11 1022.4 1022.3 0.0
30/07:30pm 22.2 21.2 13.3 57 5.1 S 11 15 6 8 1022.1 1022.0 0.0
30/07:00pm 23.7 22.6 12.0 48 6.6 SSE 9 13 5 7 1022.0 1021.9 0.0
30/06:30pm 24.4 22.2 10.7 42 7.6 SE 13 17 7 9 1021.8 1021.7 0.0
30/06:00pm 25.0 21.5 8.9 36 8.7 SE 17 22 9 12 1021.7 1021.6 0.0
30/05:30pm 25.5 22.0 8.9 35 9.0 SE 17 24 9 13 1021.7 1021.6 0.0
30/05:00pm 25.7 21.8 9.5 36 8.9 SE 20 24 11 13 1021.6 1021.5 0.0
30/04:30pm 25.6 22.3 9.4 36 8.8 SE 17 24 9 13 1021.6 1021.5 0.0
30/04:00pm 25.8 22.2 8.3 33 9.4 SE 17 20 9 11 1021.8 1021.7 0.0
30/03:30pm 26.2 22.7 8.7 33 9.5 SE 17 22 9 12 1022.0 1021.9 0.0
30/03:00pm 25.7 21.9 9.1 35 9.0 SE 19 22 10 12 1022.2 1022.1 0.0
30/02:30pm 26.3 23.0 9.6 35 9.2 SE 17 20 9 11 1022.4 1022.3 0.0
30/02:00pm 25.2 22.4 9.9 38 8.4 SSE 15 19 8 10 1022.7 1022.6 0.0
30/01:30pm 25.6 22.9 10.2 38 8.5 SSE 15 19 8 10 1023.1 1023.0 0.0
30/01:00pm 24.6 22.2 10.1 40 8.0 SSE 13 19 7 10 1023.6 1023.5 0.0
30/12:30pm 24.1 22.0 11.1 44 7.2 SE 13 17 7 9 1024.0 1024.0 0.0
30/12:00pm 23.1 21.1 11.5 48 6.5 SE 13 19 7 10 1024.3 1024.3 0.0
30/11:30am 23.2 22.1 13.1 53 5.8 SE 11 17 6 9 1024.5 1024.5 0.0
30/11:00am 22.5 21.7 13.0 55 5.4 SSE 9 13 5 7 1024.7 1024.7 0.0
30/10:30am 21.6 20.9 13.2 59 4.8 SSE 9 13 5 7 1024.7 1024.7 0.0
30/10:00am 20.9 20.3 13.4 62 4.3 S 9 15 5 8 1024.6 1024.6 0.0
30/09:30am 19.9 19.1 14.0 69 3.4 S 11 15 6 8 1024.4 1024.4 0.0
30/09:00am 18.0 18.2 14.7 81 1.9 SSW 7 9 4 5 1024.2 1024.2 0.0
30/08:30am 14.9 14.9 13.6 92 0.7 WSW 6 7 3 4 1023.8 1023.7 0.0
30/08:00am 12.2 10.9 11.1 93 0.6 W 9 9 5 5 1023.4 1023.3 0.0
30/07:30am 11.3 10.1 10.2 93 0.6 W 7 7 4 4 1023.3 1023.2 0.0
30/07:00am 12.0 10.5 10.7 92 0.7 W 9 9 5 5 1023.0 1022.9 0.0
30/06:30am 12.2 11.2 11.1 93 0.6 WSW 7 9 4 5 1022.6 1022.5 0.0
30/06:00am 11.9 10.8 10.6 92 0.7 W 7 9 4 5 1022.4 1022.3 0.0
30/05:30am 12.3 11.3 11.0 92 0.7 W 7 7 4 4 1022.2 1022.1 0.0
30/05:00am 12.5 11.6 11.2 92 0.7 W 7 7 4 4 1022.2 1022.1 0.0
30/04:30am 13.2 12.4 11.8 91 0.7 W 7 7 4 4 1022.4 1022.3 0.0
30/04:00am 14.2 13.7 12.8 91 0.8 WSW 7 9 4 5 1022.3 1022.2 0.0
30/03:30am 14.1 13.6 12.5 90 0.9 W 7 9 4 5 1022.5 1022.4 0.0
30/03:00am 14.4 13.6 12.8 90 0.9 WSW 9 11 5 6 1022.6 1022.5 0.0
30/02:30am 13.8 13.0 11.8 88 1.1 WNW 7 9 4 5 1022.8 1022.7 0.0
30/02:00am 14.0 13.3 11.5 85 1.3 WSW 6 6 3 3 1022.9 1022.8 0.0
30/01:30am 14.3 14.8 11.6 84 1.4 CALM 0 4 0 2 1023.0 1022.9 0.0
30/01:00am 15.0 15.7 12.1 83 1.6 CALM 0 4 0 2 1023.1 1023.0 0.0
30/12:30am 15.5 15.0 12.1 80 1.8 SW 6 6 3 3 1023.2 1023.1 0.0
30/12:00am 16.0 15.6 12.4 79 2.0 SW 6 7 3 4 1023.2 1023.1 0.0
 
Date/Time
CDT
Temp
°C
App
Temp
°C
Dew
Point
Rel
Hum
%
Delta-T
°C
Wind Press
QNH
hPa
Press
MSL
hPa
Rain
since 9 am
mm
Dir
 
Spd
km/h
Gust
km/h
Spd
kts
Gust
kts
29/11:30pm 16.0 15.6 12.4 79 2.0 W 6 7 3 4 1023.3 1023.2 0.0
29/11:00pm 16.0 16.1 12.6 80 1.9 W 4 6 2 3 1023.3 1023.2 0.0
29/10:30pm 16.6 16.4 13.1 80 1.9 SSW 6 7 3 4 1023.3 1023.2 0.0
29/10:00pm 17.4 16.9 13.7 79 2.1 S 9 11 5 6 1023.0 1022.9 0.0
29/09:30pm 18.0 17.2 14.1 78 2.2 S 11 13 6 7 1022.8 1022.7 0.0
29/09:00pm 17.6 16.3 12.5 72 2.8 S 11 15 6 8 1022.6 1022.5 0.0
29/08:30pm 19.4 19.3 13.8 70 3.2 E 7 9 4 5 1022.0 1021.9 0.0
29/08:00pm 20.0 19.5 12.7 63 4.1 ESE 7 9 4 5 1021.8 1021.7 0.0
29/07:30pm 21.0 20.2 11.6 55 5.2 E 7 9 4 5 1021.7 1021.6 0.0
29/07:00pm 22.1 19.2 9.6 45 6.7 ENE 15 20 8 11 1021.4 1021.3 0.0
29/06:30pm 23.1 19.7 9.1 41 7.5 ENE 17 24 9 13 1020.9 1020.8 0.0

Other Formats:

Comma delimited format used in spreadsheet applications
http://www.bom.gov.au/fwo/IDS60801/IDS60801.95664.axf

JavaScript Object Notation format (JSON) in row-major order
http://www.bom.gov.au/fwo/IDS60801/IDS60801.95664.json